createdAt,value
2023-02-25T00:01:57.747Z,86.10
2023-02-25T00:04:31.541Z,86.24
2023-02-25T00:06:59.824Z,86.32
2023-02-25T00:09:28.939Z,86.76
2023-02-25T00:11:56.808Z,86.51
2023-02-25T00:14:24.675Z,86.60
2023-02-25T00:16:56.071Z,86.67
2023-02-25T00:19:25.422Z,86.85
2023-02-25T00:21:53.267Z,87.23
2023-02-25T00:24:21.160Z,87.34
2023-02-25T00:26:49.274Z,87.47
2023-02-25T00:29:17.290Z,87.76
2023-02-25T00:31:45.277Z,87.85
2023-02-25T00:34:13.296Z,87.80
2023-02-25T00:36:41.307Z,87.67
2023-02-25T00:39:09.352Z,87.75
2023-02-25T00:41:37.646Z,87.78
2023-02-25T00:44:07.226Z,87.54
2023-02-25T00:46:35.612Z,87.62
2023-02-25T00:49:03.706Z,87.23
2023-02-25T00:51:33.169Z,87.45
2023-02-25T00:54:01.138Z,87.35
2023-02-25T00:56:29.211Z,87.98
2023-02-25T00:58:57.100Z,87.97
2023-02-25T01:01:31.024Z,87.73
2023-02-25T01:03:59.753Z,87.96
2023-02-25T01:06:29.146Z,88.61
2023-02-25T01:08:59.861Z,88.71
2023-02-25T01:11:31.009Z,88.46
2023-02-25T01:14:01.692Z,88.43
2023-02-25T01:16:31.771Z,88.47
2023-02-25T01:19:03.760Z,88.65
2023-02-25T01:21:35.596Z,88.39
2023-02-25T01:24:23.804Z,88.58
2023-02-25T01:26:56.029Z,88.01
2023-02-25T01:29:30.327Z,88.27
2023-02-25T01:32:00.653Z,88.58
2023-02-25T01:34:29.117Z,88.42
2023-02-25T01:36:57.938Z,88.16
2023-02-25T01:39:28.126Z,88.43
2023-02-25T01:41:58.222Z,88.42
2023-02-25T01:44:32.717Z,88.25
2023-02-25T01:47:01.766Z,88.18
2023-02-25T01:49:46.016Z,87.85
2023-02-25T01:52:15.827Z,87.41
2023-02-25T01:54:46.649Z,87.37
2023-02-25T01:57:18.867Z,87.28
2023-02-25T01:59:48.535Z,87.75
2023-02-25T02:02:20.074Z,88.05
2023-02-25T02:04:50.586Z,88.36
2023-02-25T02:07:19.885Z,88.00
2023-02-25T02:09:57.027Z,88.10
2023-02-25T02:12:51.505Z,88.58
2023-02-25T02:15:19.359Z,88.64
2023-02-25T02:17:56.570Z,88.92
2023-02-25T02:20:34.854Z,88.64
2023-02-25T02:23:05.648Z,88.49
2023-02-25T02:25:55.007Z,88.45
2023-02-25T02:28:41.380Z,88.40
2023-02-25T02:31:27.184Z,88.85
2023-02-25T02:34:32.759Z,89.35
2023-02-25T02:37:21.425Z,88.90
2023-02-25T02:39:55.448Z,88.75
2023-02-25T02:42:31.562Z,88.46
2023-02-25T02:45:17.936Z,88.29
2023-02-25T02:47:50.333Z,88.02
2023-02-25T02:50:36.307Z,87.85
2023-02-25T02:53:13.664Z,88.59
2023-02-25T02:55:46.391Z,88.72
2023-02-25T02:58:20.414Z,88.62
2023-02-25T03:00:56.943Z,89.11
2023-02-25T03:03:36.469Z,89.76
2023-02-25T03:06:17.118Z,90.14
2023-02-25T03:08:50.614Z,90.41
2023-02-25T03:11:18.639Z,90.23
2023-02-25T03:13:46.592Z,90.17
2023-02-25T03:16:26.613Z,90.25
2023-02-25T03:19:18.601Z,90.15
2023-02-25T03:21:54.899Z,89.78
2023-02-25T03:24:32.524Z,89.89
2023-02-25T03:27:01.554Z,89.39
2023-02-25T03:29:31.888Z,89.41
2023-02-25T03:32:06.989Z,89.46
2023-02-25T03:34:43.838Z,89.20
2023-02-25T03:37:17.265Z,89.18
2023-02-25T03:39:49.949Z,88.93
2023-02-25T03:42:24.005Z,89.09
2023-02-25T03:44:56.812Z,89.03
2023-02-25T03:47:28.850Z,89.28
2023-02-25T03:50:02.923Z,88.94
2023-02-25T03:52:31.233Z,88.51
2023-02-25T03:54:59.297Z,87.89
2023-02-25T03:57:37.902Z,88.26
2023-02-25T04:00:19.773Z,88.12
2023-02-25T04:02:47.999Z,88.30
2023-02-25T04:05:18.613Z,88.79
2023-02-25T04:07:47.091Z,88.73
2023-02-25T04:10:16.973Z,88.97
2023-02-25T04:12:44.929Z,89.15
2023-02-25T04:15:14.423Z,88.82
2023-02-25T04:17:45.132Z,89.12
2023-02-25T04:20:17.353Z,89.50
2023-02-25T04:22:45.358Z,89.36
2023-02-25T04:25:13.283Z,89.55
2023-02-25T04:27:41.224Z,89.69
2023-02-25T04:30:10.017Z,89.45
2023-02-25T04:32:38.090Z,89.33
2023-02-25T04:35:10.049Z,89.20
2023-02-25T04:37:39.289Z,88.99
2023-02-25T04:40:16.611Z,88.90
2023-02-25T04:42:44.879Z,88.89
2023-02-25T04:45:14.149Z,89.18
2023-02-25T04:47:42.253Z,89.13
2023-02-25T04:50:11.433Z,88.87
2023-02-25T04:52:39.408Z,89.41
2023-02-25T04:55:09.846Z,89.12
2023-02-25T04:57:45.234Z,88.94
2023-02-25T05:00:20.719Z,89.08
2023-02-25T05:02:48.879Z,89.32
2023-02-25T05:05:17.516Z,89.53
2023-02-25T05:07:45.594Z,89.50
2023-02-25T05:10:15.095Z,89.72
2023-02-25T05:12:42.926Z,89.52
2023-02-25T05:15:11.873Z,89.77
2023-02-25T05:17:39.824Z,90.10
2023-02-25T05:20:12.871Z,90.18
2023-02-25T05:22:42.213Z,90.16
2023-02-25T05:25:11.442Z,90.34
2023-02-25T05:27:39.423Z,90.15
2023-02-25T05:30:08.372Z,89.95
2023-02-25T05:32:36.416Z,89.77
2023-02-25T05:35:05.891Z,90.23
2023-02-25T05:37:33.760Z,90.20
2023-02-25T05:40:01.683Z,90.25
2023-02-25T05:42:30.002Z,89.73
2023-02-25T05:44:57.876Z,90.14
2023-02-25T05:47:25.769Z,90.00
2023-02-25T05:49:53.641Z,90.26
2023-02-25T05:52:21.524Z,90.27
2023-02-25T05:54:49.493Z,90.10
2023-02-25T05:57:17.492Z,89.94
2023-02-25T05:59:45.364Z,89.75
2023-02-25T06:02:13.401Z,89.91
2023-02-25T06:04:41.399Z,90.48
2023-02-25T06:07:09.197Z,90.70
2023-02-25T06:09:37.562Z,90.70
2023-02-25T06:12:06.048Z,90.36
2023-02-25T06:14:33.989Z,90.13
2023-02-25T06:17:02.667Z,90.15
2023-02-25T06:19:30.522Z,90.20
2023-02-25T06:21:58.430Z,90.14
2023-02-25T06:24:26.397Z,89.80
2023-02-25T06:26:54.312Z,89.76
2023-02-25T06:29:22.171Z,89.81
2023-02-25T06:31:50.543Z,89.92
2023-02-25T06:34:19.275Z,89.71
2023-02-25T06:36:47.110Z,89.53
2023-02-25T06:39:14.956Z,90.24
2023-02-25T06:41:42.998Z,90.93
2023-02-25T06:44:10.938Z,90.53
2023-02-25T06:46:38.878Z,90.84
2023-02-25T06:49:06.702Z,90.51
2023-02-25T06:51:34.614Z,90.72
2023-02-25T06:54:03.545Z,90.63
2023-02-25T06:56:31.437Z,90.91
2023-02-25T06:58:59.591Z,91.07
2023-02-25T07:01:27.784Z,91.02
2023-02-25T07:03:55.884Z,91.13
2023-02-25T07:06:24.106Z,90.91
2023-02-25T07:08:52.350Z,90.65
2023-02-25T07:11:21.765Z,90.62
2023-02-25T07:13:51.784Z,90.44
2023-02-25T07:16:20.585Z,90.10
2023-02-25T07:18:48.779Z,90.46
2023-02-25T07:21:17.940Z,90.84
2023-02-25T07:23:46.620Z,91.00
2023-02-25T07:26:16.033Z,91.23
2023-02-25T07:28:44.148Z,91.32
2023-02-25T07:31:18.436Z,91.16
2023-02-25T07:33:46.920Z,90.56
2023-02-25T07:36:15.925Z,89.92
2023-02-25T07:38:44.458Z,90.02
2023-02-25T07:41:14.723Z,90.49
2023-02-25T07:43:43.550Z,90.96
2023-02-25T07:46:13.226Z,91.03
2023-02-25T07:48:41.656Z,91.03
2023-02-25T07:51:17.235Z,90.90
2023-02-25T07:53:46.611Z,89.85
2023-02-25T07:56:16.176Z,90.31
2023-02-25T07:58:44.741Z,90.01
2023-02-25T08:01:23.771Z,89.66
2023-02-25T08:03:53.804Z,90.15
2023-02-25T08:06:21.955Z,89.75
2023-02-25T08:08:52.204Z,90.31
2023-02-25T08:11:21.577Z,90.43
2023-02-25T08:13:49.603Z,90.51
2023-02-25T08:16:20.060Z,90.46
2023-02-25T08:18:48.602Z,90.21
2023-02-25T08:21:18.857Z,90.13
2023-02-25T08:23:46.969Z,89.77
2023-02-25T08:26:17.462Z,90.13
2023-02-25T08:28:46.256Z,90.49
2023-02-25T08:31:14.366Z,90.26
2023-02-25T08:33:49.506Z,90.10
2023-02-25T08:36:20.676Z,90.13
2023-02-25T08:38:50.254Z,89.99
2023-02-25T08:41:20.502Z,90.09
2023-02-25T08:43:52.027Z,90.11
2023-02-25T08:46:21.473Z,89.63
2023-02-25T08:48:51.732Z,88.71
2023-02-25T08:51:21.327Z,88.66
2023-02-25T08:53:49.309Z,88.95
2023-02-25T08:56:17.279Z,88.56
2023-02-25T08:58:45.263Z,87.43
2023-02-25T09:01:16.910Z,86.12
2023-02-25T09:03:54.112Z,86.67
2023-02-25T09:06:28.199Z,86.97
2023-02-25T09:08:56.910Z,84.11
2023-02-25T09:11:25.753Z,82.95
2023-02-25T09:13:54.428Z,81.67
2023-02-25T09:16:22.377Z,80.46
2023-02-25T09:18:51.753Z,79.94
2023-02-25T09:21:20.296Z,80.03
2023-02-25T09:23:51.410Z,80.34
2023-02-25T09:26:21.330Z,80.67
2023-02-25T09:28:49.934Z,81.12
2023-02-25T09:31:18.577Z,80.46
2023-02-25T09:33:46.728Z,80.39
2023-02-25T09:36:17.564Z,79.28
2023-02-25T09:38:50.227Z,78.00
2023-02-25T09:41:27.169Z,77.35
2023-02-25T09:44:10.071Z,77.15
2023-02-25T09:46:46.567Z,76.99
2023-02-25T09:49:23.942Z,75.87
2023-02-25T09:52:00.638Z,74.94
2023-02-25T09:54:42.461Z,74.86
2023-02-25T09:57:15.955Z,73.27
2023-02-25T09:59:43.803Z,72.17
2023-02-25T10:02:36.993Z,72.14
2023-02-25T10:05:27.751Z,71.24
2023-02-25T10:08:26.878Z,69.08
2023-02-25T10:11:10.268Z,68.30
2023-02-25T10:14:04.614Z,68.36
2023-02-25T10:16:41.891Z,66.42
2023-02-25T10:19:15.620Z,66.18
2023-02-25T10:22:06.569Z,65.40
2023-02-25T10:24:40.976Z,66.64
2023-02-25T10:27:31.892Z,66.14
2023-02-25T10:30:14.301Z,66.30
2023-02-25T10:32:45.126Z,65.15
2023-02-25T10:35:29.005Z,64.18
2023-02-25T10:37:56.959Z,64.38
2023-02-25T10:40:29.212Z,64.98
2023-02-25T10:43:03.217Z,65.43
2023-02-25T10:45:32.317Z,65.72
2023-02-25T10:48:08.283Z,66.27
2023-02-25T10:50:45.959Z,66.86
2023-02-25T10:53:18.668Z,68.34
2023-02-25T10:55:51.833Z,69.88
2023-02-25T10:58:33.392Z,71.20
2023-02-25T11:01:07.357Z,72.41
2023-02-25T11:03:45.462Z,73.85
2023-02-25T11:06:18.744Z,74.87
2023-02-25T11:08:46.958Z,75.83
2023-02-25T11:11:20.437Z,76.38
2023-02-25T11:13:59.960Z,77.07
2023-02-25T11:16:30.736Z,77.47
2023-02-25T11:19:01.443Z,77.69
2023-02-25T11:21:36.235Z,78.50
2023-02-25T11:24:15.188Z,79.24
2023-02-25T11:26:46.381Z,79.23
2023-02-25T11:29:20.561Z,79.38
2023-02-25T11:31:58.928Z,79.63
2023-02-25T11:34:31.846Z,79.72
2023-02-25T11:37:23.686Z,79.89
2023-02-25T11:39:53.834Z,79.36
2023-02-25T11:42:26.981Z,79.67
2023-02-25T11:45:05.128Z,79.64
2023-02-25T11:47:37.411Z,79.44
2023-02-25T11:50:11.724Z,79.77
2023-02-25T11:53:16.972Z,80.41
2023-02-25T11:55:51.003Z,80.95
2023-02-25T11:58:18.891Z,81.21
2023-02-25T12:01:16.034Z,81.44
2023-02-25T12:04:04.982Z,81.74
2023-02-25T12:06:44.671Z,80.68
2023-02-25T12:09:34.770Z,80.41
2023-02-25T12:12:21.385Z,80.13
2023-02-25T12:14:53.638Z,79.86
2023-02-25T12:17:24.209Z,80.13
2023-02-25T12:19:52.115Z,81.05
2023-02-25T12:22:38.104Z,81.76
2023-02-25T12:25:27.630Z,82.10
2023-02-25T12:28:23.624Z,81.86
2023-02-25T12:31:22.895Z,82.32
2023-02-25T12:34:29.384Z,82.01
2023-02-25T12:37:37.121Z,82.39
2023-02-25T12:40:25.772Z,82.79
2023-02-25T12:43:38.143Z,82.68
2023-02-25T12:46:21.372Z,82.06
2023-02-25T12:49:24.536Z,81.04
2023-02-25T12:52:25.749Z,81.30
2023-02-25T12:55:18.051Z,81.33
2023-02-25T12:58:02.944Z,81.04
2023-02-25T13:00:55.808Z,80.84
2023-02-25T13:03:36.977Z,81.00
2023-02-25T13:06:53.255Z,81.38
2023-02-25T13:09:39.338Z,81.58
2023-02-25T13:12:11.762Z,81.01
2023-02-25T13:15:17.126Z,80.93
2023-02-25T13:17:48.050Z,80.89
2023-02-25T13:20:34.902Z,81.34
2023-02-25T13:23:21.880Z,81.99
2023-02-25T13:26:06.804Z,82.28
2023-02-25T13:29:03.719Z,82.91
2023-02-25T13:31:46.782Z,83.33
2023-02-25T13:34:46.712Z,83.64
2023-02-25T13:38:02.260Z,83.76
2023-02-25T13:40:43.481Z,83.84
2023-02-25T13:43:39.457Z,84.10
2023-02-25T13:46:22.446Z,84.03
2023-02-25T13:48:58.310Z,83.78
2023-02-25T13:51:45.560Z,83.54
2023-02-25T13:54:26.306Z,83.59
2023-02-25T13:57:10.968Z,83.42
2023-02-25T14:00:01.927Z,81.65
2023-02-25T14:03:10.941Z,77.59
2023-02-25T14:06:01.723Z,73.77
2023-02-25T14:08:51.120Z,74.30
2023-02-25T14:11:45.469Z,74.38
2023-02-25T14:14:33.064Z,75.05
2023-02-25T14:17:26.858Z,75.26
2023-02-25T14:20:04.884Z,76.27
2023-02-25T14:22:48.152Z,76.64
2023-02-25T14:25:34.531Z,77.02
2023-02-25T14:28:22.568Z,76.88
2023-02-25T14:31:23.406Z,76.86
2023-02-25T14:33:58.668Z,77.13
2023-02-25T14:36:55.229Z,77.52
2023-02-25T14:39:57.291Z,76.96
2023-02-25T14:42:46.710Z,76.90
2023-02-25T14:45:32.573Z,77.23
2023-02-25T14:48:35.528Z,77.30
2023-02-25T14:51:35.345Z,76.90
2023-02-25T14:54:25.143Z,76.96
2023-02-25T14:57:27.084Z,76.87
2023-02-25T15:00:05.154Z,77.16
2023-02-25T15:03:07.247Z,77.97
2023-02-25T15:05:57.483Z,77.97
2023-02-25T15:08:31.350Z,77.84
2023-02-25T15:10:59.084Z,77.81
2023-02-25T15:13:30.021Z,77.65
2023-02-25T15:16:15.312Z,77.83
2023-02-25T15:18:49.714Z,78.38
2023-02-25T15:21:44.059Z,78.76
2023-02-25T15:24:27.374Z,78.29
2023-02-25T15:27:00.309Z,78.10
2023-02-25T15:29:34.268Z,78.34
2023-02-25T15:32:25.413Z,78.58
2023-02-25T15:35:08.012Z,78.90
2023-02-25T15:37:57.091Z,78.64
2023-02-25T15:40:34.131Z,78.57
2023-02-25T15:43:26.382Z,78.31
2023-02-25T15:46:23.179Z,78.52
2023-02-25T15:49:36.296Z,78.48
2023-02-25T15:52:06.475Z,78.46
2023-02-25T15:54:37.719Z,78.56
2023-02-25T15:57:26.158Z,78.53
2023-02-25T15:59:57.767Z,77.13
2023-02-25T16:02:35.064Z,76.47
2023-02-25T16:05:24.745Z,75.89
2023-02-25T16:08:30.191Z,76.08
2023-02-25T16:10:59.930Z,73.70
2023-02-25T16:13:32.270Z,71.99
2023-02-25T16:16:03.243Z,70.07
2023-02-25T16:18:45.218Z,69.28
2023-02-25T16:21:46.706Z,70.08
2023-02-25T16:24:15.863Z,68.93
2023-02-25T16:26:52.752Z,66.31
2023-02-25T16:29:48.726Z,66.02
2023-02-25T16:32:23.257Z,64.56
2023-02-25T16:35:01.206Z,64.93
2023-02-25T16:38:03.010Z,65.39
2023-02-25T16:40:35.998Z,64.48
2023-02-25T16:43:04.902Z,64.30
2023-02-25T16:45:41.529Z,64.23
2023-02-25T16:48:21.912Z,65.59
2023-02-25T16:50:51.250Z,66.24
2023-02-25T16:53:22.857Z,67.12
2023-02-25T16:55:57.221Z,67.38
2023-02-25T16:58:27.689Z,67.09
2023-02-25T17:01:03.805Z,67.85
2023-02-25T17:03:44.115Z,68.24
2023-02-25T17:06:17.557Z,69.04
2023-02-25T17:08:50.651Z,68.42
2023-02-25T17:11:22.544Z,68.54
2023-02-25T17:13:53.384Z,69.41
2023-02-25T17:16:37.281Z,69.91
2023-02-25T17:19:08.716Z,69.42
2023-02-25T17:21:39.625Z,69.30
2023-02-25T17:24:17.337Z,69.32
2023-02-25T17:26:49.353Z,70.02
2023-02-25T17:29:18.128Z,69.61
2023-02-25T17:31:55.908Z,69.64
2023-02-25T17:34:33.109Z,69.09
2023-02-25T17:37:04.914Z,68.72
2023-02-25T17:39:33.520Z,68.82
2023-02-25T17:42:01.725Z,68.07
2023-02-25T17:44:49.916Z,68.41
2023-02-25T17:47:37.202Z,68.35
2023-02-25T17:50:40.914Z,68.62
2023-02-25T17:53:30.938Z,68.99
2023-02-25T17:56:14.801Z,68.69
2023-02-25T17:58:44.174Z,68.57
2023-02-25T18:01:28.882Z,68.65
2023-02-25T18:03:59.970Z,68.78
2023-02-25T18:06:35.888Z,68.85
2023-02-25T18:09:04.281Z,68.85
2023-02-25T18:11:36.362Z,69.27
2023-02-25T18:14:27.987Z,68.64
2023-02-25T18:16:56.458Z,67.85
2023-02-25T18:19:29.913Z,67.68
2023-02-25T18:21:59.109Z,67.59
2023-02-25T18:24:34.514Z,66.71
2023-02-25T18:27:07.005Z,67.32
2023-02-25T18:29:35.370Z,68.41
2023-02-25T18:32:03.529Z,68.83
2023-02-25T18:34:31.835Z,69.02
2023-02-25T18:37:00.456Z,69.15
2023-02-25T18:39:28.343Z,69.25
2023-02-25T18:41:56.211Z,69.80
2023-02-25T18:44:24.075Z,70.06
2023-02-25T18:46:52.087Z,70.22
2023-02-25T18:49:20.145Z,70.22
2023-02-25T18:51:50.214Z,70.52
2023-02-25T18:54:18.238Z,69.78
2023-02-25T18:56:46.203Z,69.52
2023-02-25T18:59:14.056Z,69.40
2023-02-25T19:01:42.369Z,69.19
2023-02-25T19:04:16.449Z,69.92
2023-02-25T19:06:44.446Z,70.10
2023-02-25T19:09:12.359Z,70.37
2023-02-25T19:11:40.622Z,70.17
2023-02-25T19:14:08.788Z,69.98
2023-02-25T19:16:36.756Z,69.80
2023-02-25T19:19:04.608Z,69.40
2023-02-25T19:21:32.697Z,70.03
2023-02-25T19:24:00.630Z,69.52
2023-02-25T19:26:28.492Z,69.06
2023-02-25T19:28:59.326Z,68.89
2023-02-25T19:31:27.114Z,69.65
2023-02-25T19:33:54.978Z,69.92
2023-02-25T19:36:23.121Z,69.99
2023-02-25T19:38:51.148Z,70.45
2023-02-25T19:41:19.026Z,70.50
2023-02-25T19:43:46.910Z,70.28
2023-02-25T19:46:17.499Z,69.85
2023-02-25T19:48:45.694Z,69.79
2023-02-25T19:51:14.388Z,70.10
2023-02-25T19:53:42.378Z,70.46
2023-02-25T19:56:15.791Z,69.95
2023-02-25T19:58:43.720Z,70.22
2023-02-25T20:01:11.987Z,70.62
2023-02-25T20:03:39.916Z,70.12
2023-02-25T20:06:13.004Z,69.94
2023-02-25T20:08:41.473Z,69.61
2023-02-25T20:11:10.394Z,69.80
2023-02-25T20:13:38.611Z,70.37
2023-02-25T20:16:07.396Z,70.95
2023-02-25T20:18:35.787Z,71.39
2023-02-25T20:21:06.691Z,71.99
2023-02-25T20:23:34.785Z,72.57
2023-02-25T20:26:07.661Z,72.68
2023-02-25T20:28:35.870Z,72.88
2023-02-25T20:31:16.574Z,72.69
2023-02-25T20:33:44.940Z,71.97
2023-02-25T20:36:31.235Z,72.07
2023-02-25T20:39:14.168Z,72.56
2023-02-25T20:41:46.912Z,73.34
2023-02-25T20:44:16.628Z,73.10
2023-02-25T20:46:44.875Z,73.29
2023-02-25T20:49:18.702Z,73.44
2023-02-25T20:51:47.600Z,73.49
2023-02-25T20:54:19.927Z,73.39
2023-02-25T20:56:49.084Z,73.24
2023-02-25T20:59:18.144Z,73.60
2023-02-25T21:01:45.996Z,73.78
2023-02-25T21:04:14.056Z,72.83
2023-02-25T21:06:42.061Z,72.30
2023-02-25T21:09:10.315Z,72.24
2023-02-25T21:11:38.187Z,71.93
2023-02-25T21:14:10.277Z,71.47
2023-02-25T21:16:38.402Z,71.19
2023-02-25T21:19:07.665Z,71.65
2023-02-25T21:21:38.500Z,71.75
2023-02-25T21:24:09.869Z,72.14
2023-02-25T21:26:40.701Z,72.64
2023-02-25T21:29:09.819Z,72.93
2023-02-25T21:31:38.641Z,73.27
2023-02-25T21:34:09.139Z,73.34
2023-02-25T21:36:38.109Z,73.41
2023-02-25T21:39:06.999Z,73.74
2023-02-25T21:41:36.512Z,74.41
2023-02-25T21:44:04.729Z,74.52
2023-02-25T21:46:32.681Z,73.94
2023-02-25T21:49:00.559Z,73.68
2023-02-25T21:51:28.953Z,73.69
2023-02-25T21:53:59.328Z,73.77
2023-02-25T21:56:29.210Z,73.52
2023-02-25T21:59:02.224Z,73.56
2023-02-25T22:01:34.364Z,73.91
2023-02-25T22:04:02.587Z,74.69
2023-02-25T22:06:31.264Z,74.84
2023-02-25T22:09:00.029Z,74.75
2023-02-25T22:11:33.756Z,74.55
2023-02-25T22:14:02.782Z,74.62
2023-02-25T22:16:30.647Z,74.60
2023-02-25T22:18:58.894Z,74.55
2023-02-25T22:21:29.363Z,74.47
2023-02-25T22:24:00.067Z,74.95
2023-02-25T22:26:31.695Z,74.98
2023-02-25T22:29:02.729Z,75.13
2023-02-25T22:31:32.633Z,75.39
2023-02-25T22:34:01.715Z,75.96
2023-02-25T22:36:29.583Z,75.88
2023-02-25T22:38:57.591Z,75.90
2023-02-25T22:41:30.356Z,76.13
2023-02-25T22:43:58.905Z,76.40
2023-02-25T22:46:28.693Z,76.23
2023-02-25T22:48:57.532Z,76.05
2023-02-25T22:51:28.484Z,76.57
2023-02-25T22:53:57.372Z,76.76
2023-02-25T22:56:26.102Z,76.68
2023-02-25T22:58:54.520Z,76.70
2023-02-25T23:01:24.055Z,76.86
2023-02-25T23:03:53.036Z,76.83
2023-02-25T23:06:34.330Z,76.89
2023-02-25T23:09:08.907Z,76.90
2023-02-25T23:11:36.945Z,76.90
2023-02-25T23:14:05.356Z,76.44
2023-02-25T23:16:35.602Z,76.70
2023-02-25T23:19:04.995Z,76.49
2023-02-25T23:21:33.929Z,76.24
2023-02-25T23:24:04.947Z,76.48
2023-02-25T23:26:37.848Z,76.60
2023-02-25T23:29:08.185Z,76.45
2023-02-25T23:31:38.560Z,76.79
2023-02-25T23:34:09.977Z,76.91
2023-02-25T23:36:40.035Z,76.94
2023-02-25T23:39:08.934Z,76.65
2023-02-25T23:41:38.503Z,76.83
2023-02-25T23:44:09.123Z,77.14
2023-02-25T23:46:37.614Z,77.17
2023-02-25T23:49:07.447Z,77.12
2023-02-25T23:51:36.307Z,77.33
2023-02-25T23:54:05.971Z,77.42
2023-02-25T23:56:35.342Z,77.53
2023-02-25T23:59:03.345Z,77.54
